createdAt,value
2023-05-04T00:00:27.296Z,11.62
2023-05-04T00:01:27.427Z,11.63
2023-05-04T00:02:27.372Z,11.56
2023-05-04T00:03:27.541Z,11.50
2023-05-04T00:04:28.455Z,11.53
2023-05-04T00:05:28.315Z,11.47
2023-05-04T00:06:28.296Z,11.48
2023-05-04T00:07:27.180Z,11.48
2023-05-04T00:08:28.285Z,11.51
2023-05-04T00:09:27.207Z,11.48
2023-05-04T00:10:27.295Z,11.51
2023-05-04T00:11:28.128Z,11.51
2023-05-04T00:12:28.406Z,11.56
2023-05-04T00:13:28.168Z,11.58
2023-05-04T00:14:28.247Z,11.59
2023-05-04T00:15:28.155Z,11.58
2023-05-04T00:16:27.378Z,11.51
2023-05-04T00:17:28.152Z,11.53
2023-05-04T00:18:28.200Z,11.53
2023-05-04T00:19:27.146Z,11.51
2023-05-04T00:20:27.192Z,11.54
2023-05-04T00:21:28.073Z,11.56
2023-05-04T00:22:28.173Z,11.54
2023-05-04T00:23:27.093Z,11.56
2023-05-04T00:24:28.028Z,11.58
2023-05-04T00:25:28.144Z,11.53
2023-05-04T00:26:26.955Z,11.51
2023-05-04T00:27:27.130Z,11.50
2023-05-04T00:28:26.975Z,11.51
2023-05-04T00:29:27.072Z,11.53
2023-05-04T00:30:27.096Z,11.48
2023-05-04T00:31:28.117Z,11.50
2023-05-04T00:32:28.087Z,11.53
2023-05-04T00:33:27.057Z,11.54
2023-05-04T00:34:28.019Z,11.50
2023-05-04T00:35:28.008Z,11.51
2023-05-04T00:36:28.071Z,11.53
2023-05-04T00:37:26.977Z,11.48
2023-05-04T00:38:26.976Z,11.47
2023-05-04T00:39:27.897Z,11.51
2023-05-04T00:40:26.968Z,11.48
2023-05-04T00:41:26.826Z,11.50
2023-05-04T00:42:27.130Z,11.44
2023-05-04T00:43:26.802Z,11.38
2023-05-04T00:44:26.937Z,11.28
2023-05-04T00:45:26.771Z,11.20
2023-05-04T00:46:28.081Z,11.07
2023-05-04T00:47:26.858Z,10.90
2023-05-04T00:48:27.937Z,10.86
2023-05-04T00:49:27.805Z,10.77
2023-05-04T00:50:27.858Z,10.64
2023-05-04T00:51:27.763Z,10.54
2023-05-04T00:52:27.906Z,10.53
2023-05-04T00:53:26.830Z,10.46
2023-05-04T00:54:26.632Z,10.33
2023-05-04T00:55:27.818Z,10.22
2023-05-04T00:56:26.687Z,10.15
2023-05-04T00:57:27.809Z,10.20
2023-05-04T00:58:27.737Z,10.20
2023-05-04T00:59:27.837Z,10.26
2023-05-04T01:00:26.693Z,10.31
2023-05-04T01:01:27.793Z,10.35
2023-05-04T01:02:26.736Z,10.38
2023-05-04T01:03:27.851Z,10.41
2023-05-04T01:04:26.683Z,10.43
2023-05-04T01:05:27.741Z,10.49
2023-05-04T01:06:26.649Z,10.54
2023-05-04T01:07:26.771Z,10.57
2023-05-04T01:08:27.787Z,10.57
2023-05-04T01:09:27.571Z,10.56
2023-05-04T01:10:26.617Z,10.52
2023-05-04T01:11:27.486Z,10.54
2023-05-04T01:12:26.650Z,10.54
2023-05-04T01:13:26.603Z,10.52
2023-05-04T01:14:26.705Z,10.52
2023-05-04T01:15:26.489Z,10.48
2023-05-04T01:16:26.673Z,10.53
2023-05-04T01:17:26.537Z,10.54
2023-05-04T01:18:26.577Z,10.62
2023-05-04T01:19:26.548Z,10.71
2023-05-04T01:20:27.627Z,10.79
2023-05-04T01:21:26.438Z,10.78
2023-05-04T01:22:26.544Z,10.79
2023-05-04T01:23:26.448Z,10.82
2023-05-04T01:24:26.552Z,10.75
2023-05-04T01:25:27.490Z,10.72
2023-05-04T01:26:27.339Z,10.72
2023-05-04T01:27:27.529Z,10.68
2023-05-04T01:28:27.332Z,10.56
2023-05-04T01:29:27.500Z,10.49
2023-05-04T01:30:26.391Z,10.53
2023-05-04T01:31:26.591Z,10.49
2023-05-04T01:32:26.347Z,10.37
2023-05-04T01:33:26.469Z,10.37
2023-05-04T01:34:26.377Z,10.28
2023-05-04T01:35:27.409Z,10.33
2023-05-04T01:36:27.386Z,10.31
2023-05-04T01:37:26.408Z,10.28
2023-05-04T01:38:27.423Z,10.26
2023-05-04T01:39:26.138Z,10.22
2023-05-04T01:40:26.357Z,10.26
2023-05-04T01:41:26.166Z,10.20
2023-05-04T01:42:27.419Z,10.19
2023-05-04T01:43:27.126Z,10.20
2023-05-04T01:44:27.363Z,10.22
2023-05-04T01:45:27.117Z,10.16
2023-05-04T01:46:27.346Z,10.16
2023-05-04T01:47:26.274Z,10.13
2023-05-04T01:48:28.393Z,10.10
2023-05-04T01:49:27.197Z,10.04
2023-05-04T01:50:27.182Z,10.04
2023-05-04T01:51:27.243Z,10.00
2023-05-04T01:52:26.204Z,9.94
2023-05-04T01:53:27.154Z,9.91
2023-05-04T01:54:25.975Z,9.88
2023-05-04T01:55:26.123Z,9.90
2023-05-04T01:56:26.123Z,9.93
2023-05-04T01:57:26.156Z,9.94
2023-05-04T01:58:26.015Z,9.93
2023-05-04T01:59:27.272Z,9.91
2023-05-04T02:00:26.984Z,9.91
2023-05-04T02:01:26.173Z,9.93
2023-05-04T02:02:27.080Z,9.93
2023-05-04T02:03:27.160Z,9.93
2023-05-04T02:04:27.032Z,9.90
2023-05-04T02:05:26.089Z,9.93
2023-05-04T02:06:27.072Z,9.90
2023-05-04T02:07:26.055Z,9.91
2023-05-04T02:08:25.972Z,9.93
2023-05-04T02:09:27.012Z,9.94
2023-05-04T02:10:26.955Z,9.91
2023-05-04T02:11:26.791Z,9.93
2023-05-04T02:12:27.098Z,9.91
2023-05-04T02:13:26.882Z,9.90
2023-05-04T02:14:26.963Z,9.86
2023-05-04T02:15:26.835Z,9.82
2023-05-04T02:16:27.109Z,9.82
2023-05-04T02:17:25.840Z,9.80
2023-05-04T02:18:25.984Z,9.83
2023-05-04T02:19:26.905Z,9.80
2023-05-04T02:20:26.962Z,9.79
2023-05-04T02:21:25.803Z,9.77
2023-05-04T02:22:25.956Z,9.76
2023-05-04T02:23:25.843Z,9.72
2023-05-04T02:24:26.825Z,9.69
2023-05-04T02:25:26.855Z,9.70
2023-05-04T02:26:26.743Z,9.65
2023-05-04T02:27:25.809Z,9.67
2023-05-04T02:28:25.634Z,9.69
2023-05-04T02:29:26.844Z,9.65
2023-05-04T02:30:25.804Z,9.67
2023-05-04T02:31:25.822Z,9.64
2023-05-04T02:32:25.776Z,9.61
2023-05-04T02:33:25.882Z,9.62
2023-05-04T02:34:25.766Z,9.61
2023-05-04T02:35:25.784Z,9.57
2023-05-04T02:36:25.704Z,9.55
2023-05-04T02:37:25.742Z,9.55
2023-05-04T02:38:25.766Z,9.54
2023-05-04T02:39:25.493Z,9.54
2023-05-04T02:40:25.675Z,9.52
2023-05-04T02:41:25.605Z,9.46
2023-05-04T02:42:25.785Z,9.44
2023-05-04T02:43:25.569Z,9.44
2023-05-04T02:44:25.811Z,9.42
2023-05-04T02:45:25.575Z,9.37
2023-05-04T02:46:25.816Z,9.29
2023-05-04T02:47:25.530Z,9.28
2023-05-04T02:48:26.631Z,9.25
2023-05-04T02:49:26.557Z,9.22
2023-05-04T02:50:26.625Z,9.16
2023-05-04T02:51:26.485Z,9.11
2023-05-04T02:52:26.828Z,9.06
2023-05-04T02:53:25.497Z,9.05
2023-05-04T02:54:25.319Z,9.02
2023-05-04T02:55:25.555Z,9.05
2023-05-04T02:56:25.466Z,9.08
2023-05-04T02:57:25.504Z,9.08
2023-05-04T02:58:26.488Z,9.15
2023-05-04T02:59:25.498Z,9.11
2023-05-04T03:00:25.388Z,9.15
2023-05-04T03:01:26.625Z,9.24
2023-05-04T03:02:26.418Z,9.28
2023-05-04T03:03:26.658Z,9.24
2023-05-04T03:04:26.421Z,9.26
2023-05-04T03:05:25.420Z,9.21
2023-05-04T03:06:25.386Z,9.14
2023-05-04T03:07:26.365Z,9.14
2023-05-04T03:08:26.328Z,9.16
2023-05-04T03:09:26.327Z,9.15
2023-05-04T03:10:26.428Z,9.21
2023-05-04T03:11:26.399Z,9.28
2023-05-04T03:12:26.432Z,9.26
2023-05-04T03:13:26.189Z,9.21
2023-05-04T03:14:26.348Z,9.19
2023-05-04T03:15:26.237Z,9.14
2023-05-04T03:16:26.398Z,9.05
2023-05-04T03:17:26.308Z,9.00
2023-05-04T03:18:26.300Z,8.98
2023-05-04T03:19:26.308Z,8.93
2023-05-04T03:20:26.360Z,8.87
2023-05-04T03:21:26.261Z,8.84
2023-05-04T03:22:26.379Z,8.80
2023-05-04T03:23:26.189Z,8.78
2023-05-04T03:24:26.052Z,8.72
2023-05-04T03:25:26.242Z,8.67
2023-05-04T03:26:26.148Z,8.64
2023-05-04T03:27:26.223Z,8.62
2023-05-04T03:28:26.059Z,8.62
2023-05-04T03:29:26.208Z,8.63
2023-05-04T03:30:25.037Z,8.62
2023-05-04T03:31:25.260Z,8.57
2023-05-04T03:32:25.934Z,8.55
2023-05-04T03:33:26.137Z,8.57
2023-05-04T03:34:25.057Z,8.60
2023-05-04T03:35:26.167Z,8.59
2023-05-04T03:36:26.006Z,8.54
2023-05-04T03:37:24.956Z,8.52
2023-05-04T03:38:25.112Z,8.54
2023-05-04T03:39:25.862Z,8.64
2023-05-04T03:40:26.146Z,8.59
2023-05-04T03:41:25.928Z,8.59
2023-05-04T03:42:25.056Z,8.59
2023-05-04T03:43:25.981Z,8.49
2023-05-04T03:44:26.001Z,8.59
2023-05-04T03:45:25.858Z,8.72
2023-05-04T03:46:26.133Z,8.70
2023-05-04T03:47:25.976Z,8.77
2023-05-04T03:48:25.019Z,8.80
2023-05-04T03:49:24.920Z,8.90
2023-05-04T03:50:24.967Z,8.98
2023-05-04T03:51:24.974Z,9.02
2023-05-04T03:52:24.953Z,9.11
2023-05-04T03:53:25.017Z,9.19
2023-05-04T03:54:24.973Z,9.16
2023-05-04T03:55:24.838Z,9.19
2023-05-04T03:56:24.838Z,9.25
2023-05-04T03:57:24.888Z,9.34
2023-05-04T03:58:24.908Z,9.40
2023-05-04T03:59:24.916Z,9.47
2023-05-04T04:00:24.815Z,9.46
2023-05-04T04:01:24.878Z,9.54
2023-05-04T04:02:24.883Z,9.58
2023-05-04T04:03:25.005Z,9.62
2023-05-04T04:04:24.847Z,9.59
2023-05-04T04:05:24.865Z,9.58
2023-05-04T04:06:24.778Z,9.59
2023-05-04T04:07:24.657Z,9.59
2023-05-04T04:08:24.690Z,9.59
2023-05-04T04:09:24.518Z,9.58
2023-05-04T04:10:24.826Z,9.58
2023-05-04T04:11:25.692Z,9.55
2023-05-04T04:12:24.702Z,9.51
2023-05-04T04:13:25.587Z,9.33
2023-05-04T04:14:24.740Z,9.21
2023-05-04T04:15:24.758Z,9.15
2023-05-04T04:16:23.908Z,9.11
2023-05-04T04:17:24.660Z,9.15
2023-05-04T04:18:24.652Z,9.16
2023-05-04T04:19:24.826Z,9.25
2023-05-04T04:20:23.798Z,9.29
2023-05-04T04:21:25.327Z,9.34
2023-05-04T04:22:24.744Z,9.33
2023-05-04T04:23:23.817Z,9.36
2023-05-04T04:24:24.508Z,9.36
2023-05-04T04:25:24.572Z,8.90
2023-05-04T04:26:23.757Z,8.93
2023-05-04T04:27:24.717Z,9.06
2023-05-04T04:28:24.491Z,9.14
2023-05-04T04:29:24.519Z,9.22
2023-05-04T04:30:24.377Z,9.29
2023-05-04T04:31:23.757Z,9.32
2023-05-04T04:32:25.370Z,9.39
2023-05-04T04:33:24.838Z,9.43
2023-05-04T04:34:24.388Z,9.49
2023-05-04T04:35:24.591Z,9.51
2023-05-04T04:36:24.447Z,9.46
2023-05-04T04:37:24.477Z,9.39
2023-05-04T04:38:23.686Z,9.28
2023-05-04T04:39:24.293Z,9.10
2023-05-04T04:40:24.401Z,9.02
2023-05-04T04:41:24.266Z,9.10
2023-05-04T04:42:25.052Z,9.22
2023-05-04T04:43:24.230Z,9.34
2023-05-04T04:44:24.426Z,9.40
2023-05-04T04:45:24.246Z,9.37
2023-05-04T04:46:23.559Z,9.34
2023-05-04T04:47:24.239Z,9.37
2023-05-04T04:48:24.408Z,9.36
2023-05-04T04:49:24.236Z,9.40
2023-05-04T04:50:24.404Z,9.40
2023-05-04T04:51:24.248Z,9.47
2023-05-04T04:52:24.007Z,9.57
2023-05-04T04:53:24.247Z,9.61
2023-05-04T04:54:24.116Z,9.55
2023-05-04T04:55:24.308Z,9.59
2023-05-04T04:56:23.456Z,9.61
2023-05-04T04:57:25.312Z,9.54
2023-05-04T04:58:24.897Z,9.52
2023-05-04T04:59:24.205Z,9.42
2023-05-04T05:00:24.964Z,9.51
2023-05-04T05:01:23.460Z,9.57
2023-05-04T05:02:24.734Z,9.58
2023-05-04T05:03:24.198Z,9.59
2023-05-04T05:04:23.373Z,9.62
2023-05-04T05:05:25.131Z,9.57
2023-05-04T05:06:24.363Z,9.43
2023-05-04T05:07:24.107Z,9.55
2023-05-04T05:08:24.697Z,9.67
2023-05-04T05:09:23.312Z,9.82
2023-05-04T05:10:24.747Z,9.69
2023-05-04T05:11:24.091Z,9.69
2023-05-04T05:12:25.379Z,9.75
2023-05-04T05:13:23.987Z,9.70
2023-05-04T05:14:24.099Z,9.73
2023-05-04T05:15:24.008Z,9.76
2023-05-04T05:16:24.689Z,9.72
2023-05-04T05:17:23.232Z,9.79
2023-05-04T05:18:23.288Z,9.93
2023-05-04T05:19:23.899Z,9.97
2023-05-04T05:20:24.577Z,9.88
2023-05-04T05:21:24.231Z,9.90
2023-05-04T05:22:24.570Z,9.97
2023-05-04T05:23:23.997Z,10.13
2023-05-04T05:24:24.510Z,10.30
2023-05-04T05:25:23.934Z,10.52
2023-05-04T05:26:24.754Z,10.89
2023-05-04T05:27:23.923Z,11.56
2023-05-04T05:28:24.512Z,12.17
2023-05-04T05:29:23.952Z,12.51
2023-05-04T05:30:24.656Z,12.53
2023-05-04T05:31:23.913Z,12.87
2023-05-04T05:32:24.534Z,13.19
2023-05-04T05:33:23.044Z,13.46
2023-05-04T05:34:24.483Z,13.82
2023-05-04T05:35:23.089Z,14.33
2023-05-04T05:36:24.515Z,14.41
2023-05-04T05:37:23.599Z,14.66
2023-05-04T05:38:24.209Z,15.00
2023-05-04T05:39:22.978Z,15.82
2023-05-04T05:40:25.244Z,16.47
2023-05-04T05:41:24.643Z,17.05
2023-05-04T05:42:24.591Z,16.59
2023-05-04T05:43:23.952Z,16.02
2023-05-04T05:44:23.033Z,15.40
2023-05-04T05:45:24.242Z,15.48
2023-05-04T05:46:24.051Z,15.85
2023-05-04T05:47:22.918Z,15.62
2023-05-04T05:48:23.682Z,15.64
2023-05-04T05:49:22.857Z,16.41
2023-05-04T05:50:24.735Z,17.12
2023-05-04T05:51:24.035Z,16.53
2023-05-04T05:52:22.930Z,16.57
2023-05-04T05:53:24.357Z,16.83
2023-05-04T05:54:23.890Z,17.26
2023-05-04T05:55:22.805Z,16.82
2023-05-04T05:56:24.140Z,16.66
2023-05-04T05:57:23.789Z,16.98
2023-05-04T05:58:22.789Z,17.08
2023-05-04T05:59:23.586Z,16.82
2023-05-04T06:00:22.772Z,16.86
2023-05-04T06:01:24.213Z,16.46
2023-05-04T06:02:22.919Z,16.39
2023-05-04T06:03:24.986Z,15.92
2023-05-04T06:04:24.460Z,15.48
2023-05-04T06:05:23.578Z,15.21
2023-05-04T06:06:22.741Z,14.63
2023-05-04T06:07:23.294Z,14.32
2023-05-04T06:08:23.498Z,14.28
2023-05-04T06:09:22.677Z,14.11
2023-05-04T06:10:24.347Z,14.28
2023-05-04T06:11:23.466Z,14.08
2023-05-04T06:12:23.480Z,14.15
2023-05-04T06:13:22.631Z,14.55
2023-05-04T06:14:24.242Z,14.88
2023-05-04T06:15:23.596Z,15.07
2023-05-04T06:16:22.610Z,15.30
2023-05-04T06:17:24.205Z,15.42
2023-05-04T06:18:23.428Z,15.50
2023-05-04T06:19:23.475Z,15.60
2023-05-04T06:20:22.566Z,15.72
2023-05-04T06:21:23.300Z,15.88
2023-05-04T06:22:22.563Z,15.90
2023-05-04T06:23:24.149Z,15.94
2023-05-04T06:24:23.437Z,16.06
2023-05-04T06:25:22.576Z,16.13
2023-05-04T06:26:23.148Z,16.28
2023-05-04T06:27:24.189Z,16.29
2023-05-04T06:28:23.109Z,16.41
2023-05-04T06:29:22.463Z,16.50
2023-05-04T06:30:23.316Z,16.62
2023-05-04T06:31:23.519Z,16.65
2023-05-04T06:32:22.416Z,16.47
2023-05-04T06:33:23.196Z,16.36
2023-05-04T06:34:23.106Z,16.36
2023-05-04T06:35:22.404Z,16.32
2023-05-04T06:36:23.253Z,16.34
2023-05-04T06:37:22.977Z,16.10
2023-05-04T06:38:22.356Z,16.20
2023-05-04T06:39:24.205Z,16.25
2023-05-04T06:40:23.097Z,16.25
2023-05-04T06:41:22.317Z,16.28
2023-05-04T06:42:23.772Z,16.43
2023-05-04T06:43:23.014Z,16.47
2023-05-04T06:44:22.292Z,16.47
2023-05-04T06:45:22.927Z,16.64
2023-05-04T06:46:22.712Z,16.65
2023-05-04T06:47:23.497Z,16.75
2023-05-04T06:48:22.250Z,16.89
2023-05-04T06:49:23.956Z,17.05
2023-05-04T06:50:24.095Z,17.12
2023-05-04T06:51:22.279Z,17.04
2023-05-04T06:52:24.198Z,16.79
2023-05-04T06:53:23.945Z,16.86
2023-05-04T06:54:22.156Z,16.96
2023-05-04T06:55:23.014Z,17.19
2023-05-04T06:56:22.820Z,17.22
2023-05-04T06:57:22.178Z,17.20
2023-05-04T06:58:24.095Z,17.31
2023-05-04T06:59:25.845Z,17.45
2023-05-04T07:00:22.098Z,17.48
2023-05-04T07:01:22.140Z,17.57
2023-05-04T07:02:23.032Z,17.33
2023-05-04T07:03:22.119Z,17.17
2023-05-04T07:04:23.064Z,17.44
2023-05-04T07:05:22.074Z,17.59
2023-05-04T07:06:23.822Z,17.53
2023-05-04T07:07:23.460Z,17.73
2023-05-04T07:08:22.074Z,17.39
2023-05-04T07:09:22.700Z,17.45
2023-05-04T07:10:22.048Z,17.65
2023-05-04T07:11:44.524Z,17.80
2023-05-04T07:12:23.303Z,18.03
2023-05-04T07:13:22.600Z,18.18
2023-05-04T07:14:21.988Z,18.23
2023-05-04T07:15:23.326Z,18.35
2023-05-04T07:16:22.804Z,18.07
2023-05-04T07:17:22.125Z,17.91
2023-05-04T07:18:23.515Z,18.25
2023-05-04T07:19:22.973Z,18.13
2023-05-04T07:20:25.679Z,18.34
2023-05-04T07:21:28.417Z,18.56
2023-05-04T07:22:22.461Z,18.71
2023-05-04T07:23:22.621Z,18.77
2023-05-04T07:24:22.560Z,18.46
2023-05-04T07:25:22.612Z,18.68
2023-05-04T07:26:22.450Z,18.52
2023-05-04T07:27:22.957Z,18.67
2023-05-04T07:28:22.518Z,18.15
2023-05-04T07:29:22.622Z,18.30
2023-05-04T07:30:21.804Z,18.68
2023-05-04T07:31:23.009Z,18.63
2023-05-04T07:32:21.923Z,18.86
2023-05-04T07:33:23.134Z,18.98
2023-05-04T07:34:30.198Z,18.95
2023-05-04T07:35:22.834Z,19.00
2023-05-04T07:36:22.548Z,19.08
2023-05-04T07:37:21.719Z,19.05
2023-05-04T07:38:22.558Z,19.00
2023-05-04T07:39:22.438Z,19.22
2023-05-04T07:40:21.705Z,19.27
2023-05-04T07:41:23.383Z,19.36
2023-05-04T07:42:22.785Z,19.48
2023-05-04T07:43:22.297Z,19.39
2023-05-04T07:44:21.696Z,19.66
2023-05-04T07:45:23.416Z,19.84
2023-05-04T07:46:22.491Z,20.03
2023-05-04T07:47:23.790Z,20.07
2023-05-04T07:48:24.594Z,20.33
2023-05-04T07:49:22.493Z,20.47
2023-05-04T07:50:22.429Z,20.65
2023-05-04T07:51:22.378Z,21.10
2023-05-04T07:52:21.700Z,21.27
2023-05-04T07:53:22.286Z,21.54
2023-05-04T07:54:22.782Z,21.85
2023-05-04T07:55:22.310Z,22.17
2023-05-04T07:56:22.172Z,22.63
2023-05-04T07:57:22.386Z,23.02
2023-05-04T07:58:22.128Z,23.13
2023-05-04T07:59:22.785Z,23.31
2023-05-04T08:00:22.509Z,23.31
2023-05-04T08:01:22.389Z,23.48
2023-05-04T08:02:22.259Z,23.98
2023-05-04T08:03:22.294Z,24.35
2023-05-04T08:04:22.484Z,24.14
2023-05-04T08:05:22.861Z,24.05
2023-05-04T08:06:22.378Z,24.39
2023-05-04T08:07:22.294Z,24.67
2023-05-04T08:08:22.127Z,25.07
2023-05-04T08:09:22.348Z,25.44
2023-05-04T08:10:22.248Z,24.70
2023-05-04T08:11:22.036Z,24.98
2023-05-04T08:12:22.300Z,24.74
2023-05-04T08:13:22.027Z,25.11
2023-05-04T08:14:22.458Z,25.62
2023-05-04T08:15:22.076Z,26.33
2023-05-04T08:16:22.237Z,26.55
2023-05-04T08:17:21.281Z,26.59
2023-05-04T08:18:22.471Z,26.50
2023-05-04T08:19:21.255Z,26.60
2023-05-04T08:20:23.727Z,26.11
2023-05-04T08:21:21.268Z,26.43
2023-05-04T08:22:21.239Z,26.52
2023-05-04T08:23:22.850Z,26.67
2023-05-04T08:24:22.261Z,26.99
2023-05-04T08:25:21.208Z,27.12
2023-05-04T08:26:21.884Z,27.37
2023-05-04T08:27:22.038Z,27.34
2023-05-04T08:28:21.193Z,27.23
2023-05-04T08:29:22.810Z,27.08
2023-05-04T08:30:22.253Z,26.77
2023-05-04T08:31:21.959Z,27.02
2023-05-04T08:32:21.964Z,27.09
2023-05-04T08:33:21.934Z,27.60
2023-05-04T08:34:21.124Z,27.64
2023-05-04T08:35:21.994Z,27.29
2023-05-04T08:36:21.956Z,27.26
2023-05-04T08:37:22.496Z,26.93
2023-05-04T08:38:21.913Z,27.37
2023-05-04T08:39:21.084Z,27.46
2023-05-04T08:40:21.839Z,27.74
2023-05-04T08:41:21.087Z,27.67
2023-05-04T08:42:22.044Z,27.95
2023-05-04T08:43:21.859Z,27.75
2023-05-04T08:44:21.892Z,27.92
2023-05-04T08:45:21.313Z,28.08
2023-05-04T08:46:21.931Z,27.71
2023-05-04T08:47:21.024Z,27.51
2023-05-04T08:48:21.845Z,27.79
2023-05-04T08:49:21.667Z,27.79
2023-05-04T08:50:21.839Z,27.22
2023-05-04T08:51:21.666Z,27.22
2023-05-04T08:52:21.516Z,27.46
2023-05-04T08:53:21.772Z,27.98
2023-05-04T08:54:21.415Z,27.99
2023-05-04T08:55:22.447Z,28.01
2023-05-04T08:56:22.134Z,28.53
2023-05-04T08:57:21.237Z,28.83
2023-05-04T08:58:21.523Z,29.04
2023-05-04T08:59:20.887Z,29.25
2023-05-04T09:00:22.732Z,28.95
2023-05-04T09:01:22.213Z,28.41
2023-05-04T09:02:21.622Z,27.75
2023-05-04T09:03:21.761Z,27.71
2023-05-04T09:04:22.579Z,27.85
2023-05-04T09:05:20.767Z,27.65
2023-05-04T09:06:22.563Z,28.38
2023-05-04T09:07:21.993Z,28.24
2023-05-04T09:08:21.561Z,28.23
2023-05-04T09:09:21.352Z,28.16
2023-05-04T09:10:21.659Z,28.71
2023-05-04T09:11:21.371Z,28.76
2023-05-04T09:12:21.623Z,28.61
2023-05-04T09:13:21.342Z,28.82
2023-05-04T09:14:21.619Z,28.69
2023-05-04T09:15:20.688Z,28.88
2023-05-04T09:16:22.313Z,28.97
2023-05-04T09:17:21.363Z,29.07
2023-05-04T09:18:21.827Z,29.36
2023-05-04T09:19:21.323Z,29.75
2023-05-04T09:20:21.427Z,29.72
2023-05-04T09:21:21.342Z,29.26
2023-05-04T09:22:21.400Z,28.91
2023-05-04T09:23:21.402Z,27.68
2023-05-04T09:24:21.231Z,27.80
2023-05-04T09:25:21.352Z,27.89
2023-05-04T09:26:21.212Z,28.04
2023-05-04T09:27:21.343Z,27.89
2023-05-04T09:28:21.285Z,28.08
2023-05-04T09:29:21.336Z,27.42
2023-05-04T09:30:20.565Z,27.97
2023-05-04T09:31:21.353Z,28.51
2023-05-04T09:32:20.550Z,28.94
2023-05-04T09:33:21.389Z,29.23
2023-05-04T09:34:21.377Z,29.26
2023-05-04T09:35:32.130Z,28.49
2023-05-04T09:36:21.316Z,28.57
2023-05-04T09:37:21.105Z,28.90
2023-05-04T09:38:21.402Z,28.88
2023-05-04T09:39:21.039Z,28.95
2023-05-04T09:40:20.441Z,28.51
2023-05-04T09:41:21.104Z,28.76
2023-05-04T09:42:21.221Z,29.01
2023-05-04T09:43:21.152Z,27.75
2023-05-04T09:44:21.392Z,27.08
2023-05-04T09:45:21.068Z,27.51
2023-05-04T09:46:21.347Z,27.82
2023-05-04T09:47:21.153Z,28.12
2023-05-04T09:48:21.144Z,27.86
2023-05-04T09:49:21.148Z,28.66
2023-05-04T09:50:21.373Z,28.81
2023-05-04T09:51:21.290Z,28.94
2023-05-04T09:52:20.293Z,28.66
2023-05-04T09:53:21.130Z,28.22
2023-05-04T09:54:20.889Z,28.36
2023-05-04T09:55:21.687Z,27.82
2023-05-04T09:56:20.863Z,27.15
2023-05-04T09:57:21.093Z,27.11
2023-05-04T09:58:20.234Z,27.22
2023-05-04T09:59:21.133Z,27.70
2023-05-04T10:00:20.377Z,28.07
2023-05-04T10:01:20.222Z,27.79
2023-05-04T10:02:23.016Z,27.80
2023-05-04T10:03:21.226Z,28.24
2023-05-04T10:04:21.191Z,28.71
2023-05-04T10:05:20.996Z,29.02
2023-05-04T10:06:20.971Z,28.16
2023-05-04T10:07:21.031Z,27.70
2023-05-04T10:08:20.121Z,27.98
2023-05-04T10:09:21.934Z,28.16
2023-05-04T10:10:20.933Z,28.57
2023-05-04T10:11:20.980Z,28.35
2023-05-04T10:12:20.987Z,28.22
2023-05-04T10:13:20.750Z,28.22
2023-05-04T10:14:20.050Z,28.79
2023-05-04T10:15:22.132Z,29.02
2023-05-04T10:16:21.617Z,28.49
2023-05-04T10:17:20.738Z,28.46
2023-05-04T10:18:20.829Z,28.76
2023-05-04T10:19:20.750Z,28.95
2023-05-04T10:20:20.826Z,29.02
2023-05-04T10:21:19.959Z,28.76
2023-05-04T10:22:20.641Z,28.26
2023-05-04T10:23:22.610Z,28.64
2023-05-04T10:24:20.547Z,28.88
2023-05-04T10:25:20.759Z,28.41
2023-05-04T10:26:20.589Z,28.78
2023-05-04T10:27:20.739Z,28.42
2023-05-04T10:28:22.278Z,28.26
2023-05-04T10:29:22.649Z,28.26
2023-05-04T10:30:20.606Z,28.41
2023-05-04T10:31:20.844Z,27.99
2023-05-04T10:32:19.946Z,27.48
2023-05-04T10:33:21.570Z,27.83
2023-05-04T10:34:21.317Z,27.79
2023-05-04T10:35:20.659Z,27.44
2023-05-04T10:36:20.647Z,27.74
2023-05-04T10:37:21.176Z,27.42
2023-05-04T10:38:21.454Z,27.17
2023-05-04T10:39:20.441Z,25.87
2023-05-04T10:40:20.582Z,23.93
2023-05-04T10:41:20.411Z,24.36
2023-05-04T10:42:20.572Z,24.98
2023-05-04T10:43:20.450Z,25.81
2023-05-04T10:44:20.701Z,26.15
2023-05-04T10:45:20.391Z,26.55
2023-05-04T10:46:20.600Z,26.74
2023-05-04T10:47:20.466Z,26.04
2023-05-04T10:48:20.598Z,25.58
2023-05-04T10:49:20.480Z,25.43
2023-05-04T10:50:20.570Z,25.41
2023-05-04T10:51:20.374Z,24.89
2023-05-04T10:52:20.541Z,24.52
2023-05-04T10:53:20.380Z,24.18
2023-05-04T10:54:20.251Z,23.28
2023-05-04T10:55:20.513Z,22.98
2023-05-04T10:56:20.307Z,22.29
2023-05-04T10:57:20.401Z,22.40
2023-05-04T10:58:20.329Z,22.51
2023-05-04T10:59:20.546Z,22.47
2023-05-04T11:00:20.458Z,22.54
2023-05-04T11:01:20.417Z,22.01
2023-05-04T11:02:20.336Z,21.70
2023-05-04T11:03:20.372Z,21.66
2023-05-04T11:04:20.221Z,21.61
2023-05-04T11:05:20.702Z,21.35
2023-05-04T11:06:23.323Z,21.43
2023-05-04T11:07:20.496Z,21.54
2023-05-04T11:08:20.239Z,21.42
2023-05-04T11:09:20.061Z,21.22
2023-05-04T11:10:20.306Z,21.22
2023-05-04T11:11:19.542Z,21.35
2023-05-04T11:12:20.300Z,21.37
2023-05-04T11:13:20.289Z,21.39
2023-05-04T11:14:20.207Z,21.40
2023-05-04T11:15:20.106Z,21.20
2023-05-04T11:16:20.299Z,20.93
2023-05-04T11:17:28.040Z,20.47
2023-05-04T11:18:20.824Z,20.18
2023-05-04T11:19:20.081Z,20.36
2023-05-04T11:20:20.144Z,20.59
2023-05-04T11:21:20.150Z,20.75
2023-05-04T11:22:20.307Z,20.90
2023-05-04T11:23:20.142Z,21.02
2023-05-04T11:24:19.960Z,21.02
2023-05-04T11:25:20.270Z,20.97
2023-05-04T11:26:19.934Z,20.85
2023-05-04T11:27:20.117Z,20.90
2023-05-04T11:28:19.985Z,21.00
2023-05-04T11:29:20.142Z,20.59
2023-05-04T11:30:20.001Z,20.14
2023-05-04T11:31:20.107Z,19.96
2023-05-04T11:32:19.909Z,20.14
2023-05-04T11:33:20.062Z,20.33
2023-05-04T11:34:19.920Z,20.55
2023-05-04T11:35:20.042Z,20.59
2023-05-04T11:36:19.250Z,20.57
2023-05-04T11:37:19.982Z,20.62
2023-05-04T11:38:20.063Z,20.59
2023-05-04T11:39:19.770Z,20.74
2023-05-04T11:40:19.937Z,20.66
2023-05-04T11:41:19.789Z,20.53
2023-05-04T11:42:20.002Z,20.48
2023-05-04T11:43:19.834Z,20.43
2023-05-04T11:44:19.900Z,20.24
2023-05-04T11:45:19.800Z,20.15
2023-05-04T11:46:20.032Z,20.11
2023-05-04T11:47:20.151Z,20.04
2023-05-04T11:48:19.898Z,20.00
2023-05-04T11:49:19.761Z,20.06
2023-05-04T11:50:19.866Z,20.15
2023-05-04T11:51:19.051Z,20.04
2023-05-04T11:52:19.865Z,20.03
2023-05-04T11:53:18.989Z,20.06
2023-05-04T11:54:20.256Z,20.18
2023-05-04T11:55:19.921Z,20.33
2023-05-04T11:56:19.721Z,20.55
2023-05-04T11:57:18.950Z,20.53
2023-05-04T11:58:18.971Z,20.26
2023-05-04T11:59:19.746Z,20.14
2023-05-04T12:00:18.921Z,19.96
2023-05-04T12:01:19.781Z,19.89
2023-05-04T12:02:19.649Z,19.91
2023-05-04T12:03:19.806Z,19.88
2023-05-04T12:04:18.977Z,19.85
2023-05-04T12:05:20.645Z,19.91
2023-05-04T12:06:19.950Z,19.82
2023-05-04T12:07:19.784Z,19.86
2023-05-04T12:08:19.683Z,19.82
2023-05-04T12:09:19.451Z,19.86
2023-05-04T12:10:19.588Z,19.39
2023-05-04T12:11:19.464Z,19.46
2023-05-04T12:12:19.759Z,19.60
2023-05-04T12:13:19.586Z,19.73
2023-05-04T12:14:18.802Z,19.92
2023-05-04T12:15:19.410Z,20.06
2023-05-04T12:16:19.684Z,20.19
2023-05-04T12:17:19.449Z,20.24
2023-05-04T12:18:19.045Z,20.37
2023-05-04T12:19:19.429Z,20.41
2023-05-04T12:20:18.746Z,20.39
2023-05-04T12:21:19.476Z,20.40
2023-05-04T12:22:19.560Z,20.37
2023-05-04T12:23:19.405Z,20.37
2023-05-04T12:24:19.385Z,20.43
2023-05-04T12:25:19.472Z,20.43
2023-05-04T12:26:19.766Z,20.40
2023-05-04T12:27:19.590Z,20.39
2023-05-04T12:28:19.281Z,20.37
2023-05-04T12:29:18.661Z,20.43
2023-05-04T12:30:19.391Z,20.55
2023-05-04T12:31:19.464Z,20.66
2023-05-04T12:32:19.351Z,20.80
2023-05-04T12:33:19.420Z,20.89
2023-05-04T12:34:19.290Z,20.77
2023-05-04T12:35:19.423Z,20.63
2023-05-04T12:36:19.400Z,20.36
2023-05-04T12:37:19.342Z,20.17
2023-05-04T12:38:19.318Z,20.11
2023-05-04T12:39:19.122Z,20.00
2023-05-04T12:40:28.367Z,19.85
2023-05-04T12:41:19.119Z,19.91
2023-05-04T12:42:19.379Z,19.88
2023-05-04T12:43:20.749Z,19.89
2023-05-04T12:44:18.509Z,19.88
2023-05-04T12:45:19.171Z,19.96
2023-05-04T12:46:19.257Z,20.01
2023-05-04T12:47:19.164Z,19.99
2023-05-04T12:48:19.230Z,19.99
2023-05-04T12:49:19.158Z,20.03
2023-05-04T12:50:19.209Z,20.06
2023-05-04T12:51:19.144Z,20.15
2023-05-04T12:52:19.214Z,20.26
2023-05-04T12:53:19.233Z,20.40
2023-05-04T12:54:18.987Z,20.43
2023-05-04T12:55:19.252Z,20.36
2023-05-04T12:56:19.061Z,20.40
2023-05-04T12:57:19.176Z,20.43
2023-05-04T12:58:18.952Z,20.47
2023-05-04T12:59:19.177Z,20.39